This is the latest recevied weather packets stored in our database for station/object N4OGP-WX. If no packets are shown the sender has not sent any weather packets the latest 10 day(s).
| Time | Temp. | Humidity | Pressure | Rain* | Wind** | Luminosity | Snow |
|---|---|---|---|---|---|---|---|
| 1777488079 | 27.78° C | 78% | 1012.2 hPa | 0 mm | - | - | - |
| 1777488019 | 27.78° C | 78% | 1012.1 hPa | 0 mm | - | - | - |
| 1777487959 | 23.89° C | 42% | 1020.4 hPa | 0 mm | - | - | - |
| 1777487899 | 23.89° C | 42% | 1020.4 hPa | 0 mm | - | - | - |
| 1777487839 | 27.78° C | 78% | 1012.3 hPa | 0 mm | - | - | - |
| 1777487779 | 23.89° C | 42% | 1020.4 hPa | 0 mm | - | - | - |
| 1777487689 | 23.89° C | 42% | 1020.4 hPa | 0 mm | - | - | - |
| 1777487629 | 23.89° C | 42% | 1020.4 hPa | 0 mm | - | - | - |
| 1777487569 | 27.78° C | 79% | 1012.2 hPa | 0 mm | - | - | - |
| 1777487479 | 23.89° C | 42% | 1020.4 hPa | 0 mm | - | - | - |
| 1777487419 | 27.22° C | 78% | 1012.3 hPa | 0 mm | - | - | - |
| 1777487359 | 27.22° C | 79% | 1012.2 hPa | 0 mm | - | - | - |
| 1777487299 | 23.89° C | 42% | 1020.4 hPa | 0 mm | - | - | - |
| 1777487209 | 27.22° C | 80% | 1012.3 hPa | 0 mm | - | - | - |
| 1777487119 | 27.22° C | 80% | 1012.2 hPa | 0 mm | - | - | - |
| 1777487059 | 27.22° C | 79% | 1012.3 hPa | 0 mm | - | - | - |
| 1777486999 | 23.89° C | 42% | 1020.4 hPa | 0 mm | - | - | - |
| 1777486939 | 23.89° C | 42% | 1020.4 hPa | 0 mm | - | - | - |
| 1777486879 | 27.78° C | 79% | 1012.4 hPa | 0 mm | - | - | - |
| 1777486819 | 23.89° C | 42% | 1020.4 hPa | 0 mm | - | - | - |
| 1777486759 | 27.78° C | 79% | 1012.5 hPa | 0 mm | - | - | - |
| 1777486699 | 23.89° C | 42% | 1020.4 hPa | 0 mm | - | - | - |
| 1777486639 | 27.78° C | 79% | 1012.5 hPa | 0 mm | - | - | - |
| 1777486549 | 27.78° C | 80% | 1012.5 hPa | 0 mm | - | - | - |
| 1777486489 | 23.89° C | 42% | 1020.4 hPa | 0 mm | - | - | - |
* Rain latest hour (hover to see other rain measurements)
** Current wind speed in m/s (hover to see current wind gust speed)